createdAt,value
2023-04-15T00:00:21.336Z,11.45
2023-04-15T00:02:41.986Z,5.25
2023-04-15T00:05:01.996Z,7.30
2023-04-15T00:07:22.232Z,12.02
2023-04-15T00:09:42.638Z,9.93
2023-04-15T00:12:02.925Z,8.55
2023-04-15T00:14:23.282Z,11.07
2023-04-15T00:16:43.898Z,6.90
2023-04-15T00:19:04.275Z,5.68
2023-04-15T00:21:24.478Z,6.60
2023-04-15T00:23:44.658Z,6.65
2023-04-15T00:26:04.815Z,9.68
2023-04-15T00:28:24.886Z,13.40
2023-04-15T00:30:45.673Z,5.75
2023-04-15T00:33:06.102Z,7.95
2023-04-15T00:35:26.645Z,8.88
2023-04-15T00:37:46.882Z,8.20
2023-04-15T00:40:07.948Z,6.28
2023-04-15T00:42:28.459Z,10.07
2023-04-15T00:44:49.349Z,6.68
2023-04-15T00:47:10.443Z,11.45
2023-04-15T00:49:31.580Z,6.35
2023-04-15T00:51:52.075Z,7.85
2023-04-15T00:54:12.437Z,15.65
2023-04-15T00:56:35.512Z,10.80
2023-04-15T00:58:56.543Z,6.53
2023-04-15T01:01:18.076Z,11.75
2023-04-15T01:03:38.452Z,13.13
2023-04-15T01:06:00.906Z,9.20
2023-04-15T01:08:23.238Z,6.28
2023-04-15T01:10:43.585Z,8.15
2023-04-15T01:13:04.347Z,7.97
2023-04-15T01:15:25.148Z,7.40
2023-04-15T01:17:45.676Z,6.22
2023-04-15T01:20:09.417Z,15.23
2023-04-15T01:22:29.602Z,8.63
2023-04-15T01:25:04.088Z,7.75
2023-04-15T01:27:24.518Z,14.10
2023-04-15T01:29:44.496Z,10.15
2023-04-15T01:32:05.163Z,12.60
2023-04-15T01:34:25.668Z,10.38
2023-04-15T01:36:46.177Z,11.45
2023-04-15T01:39:06.685Z,9.55
2023-04-15T01:41:27.464Z,7.25
2023-04-15T01:43:47.380Z,10.48
2023-04-15T01:46:07.521Z,13.95
2023-04-15T01:48:27.590Z,6.00
2023-04-15T01:50:47.771Z,12.23
2023-04-15T01:53:08.001Z,11.77
2023-04-15T01:55:28.192Z,15.32
2023-04-15T01:57:48.274Z,6.05
2023-04-15T02:00:08.639Z,6.40
2023-04-15T02:02:29.227Z,11.60
2023-04-15T02:04:49.665Z,9.43
2023-04-15T02:07:09.991Z,10.65
2023-04-15T02:09:30.330Z,4.80
2023-04-15T02:11:51.304Z,7.18
2023-04-15T02:14:12.031Z,8.35
2023-04-15T02:16:33.174Z,7.55
2023-04-15T02:18:53.130Z,5.70
2023-04-15T02:21:13.561Z,7.35
2023-04-15T02:23:33.474Z,8.05
2023-04-15T02:25:54.375Z,6.85
2023-04-15T02:28:15.233Z,6.18
2023-04-15T02:30:35.498Z,10.95
2023-04-15T02:32:56.019Z,8.77
2023-04-15T02:35:18.554Z,16.25
2023-04-15T02:37:45.003Z,9.25
2023-04-15T02:40:05.349Z,5.55
2023-04-15T02:42:28.119Z,9.65
2023-04-15T02:44:47.977Z,7.57
2023-04-15T02:47:08.416Z,12.18
2023-04-15T02:49:30.238Z,8.07
2023-04-15T02:51:50.629Z,7.00
2023-04-15T02:54:10.857Z,7.78
2023-04-15T02:56:31.034Z,6.82
2023-04-15T02:58:51.143Z,17.73
2023-04-15T03:01:11.457Z,13.40
2023-04-15T03:03:32.179Z,16.08
2023-04-15T03:05:52.246Z,14.43
2023-04-15T03:08:12.389Z,16.30
2023-04-15T03:10:32.435Z,6.38
2023-04-15T03:12:52.663Z,18.45
2023-04-15T03:15:13.083Z,5.53
2023-04-15T03:17:33.170Z,6.35
2023-04-15T03:19:53.407Z,8.57
2023-04-15T03:22:13.618Z,4.22
2023-04-15T03:24:33.758Z,6.68
2023-04-15T03:26:54.539Z,5.18
2023-04-15T03:29:15.152Z,5.75
2023-04-15T03:31:35.874Z,6.50
2023-04-15T03:33:56.443Z,8.98
2023-04-15T03:36:16.588Z,7.28
2023-04-15T03:38:36.618Z,7.45
2023-04-15T03:40:56.672Z,6.80
2023-04-15T03:43:16.731Z,5.30
2023-04-15T03:45:36.807Z,4.75
2023-04-15T03:48:03.555Z,6.05
2023-04-15T03:50:31.336Z,3.97
2023-04-15T03:52:51.720Z,4.07
2023-04-15T03:55:12.012Z,3.83
2023-04-15T03:57:37.275Z,3.85
2023-04-15T03:59:57.462Z,3.90
2023-04-15T04:02:17.550Z,4.57
2023-04-15T04:04:37.825Z,4.50
2023-04-15T04:06:58.443Z,4.57
2023-04-15T04:09:18.578Z,4.40
2023-04-15T04:11:38.844Z,4.43
2023-04-15T04:13:59.117Z,4.38
2023-04-15T04:16:19.496Z,4.15
2023-04-15T04:18:39.821Z,4.95
2023-04-15T04:21:00.546Z,5.55
2023-04-15T04:23:20.757Z,6.65
2023-04-15T04:25:41.139Z,7.85
2023-04-15T04:28:01.658Z,7.10
2023-04-15T04:30:22.363Z,4.28
2023-04-15T04:32:42.594Z,4.38
2023-04-15T04:35:03.057Z,4.43
2023-04-15T04:37:23.920Z,5.13
2023-04-15T04:39:44.148Z,5.30
2023-04-15T04:42:04.434Z,5.75
2023-04-15T04:44:24.794Z,4.38
2023-04-15T04:46:44.877Z,4.13
2023-04-15T04:49:05.417Z,3.50
2023-04-15T04:51:25.877Z,3.85
2023-04-15T04:53:46.021Z,3.75
2023-04-15T04:56:06.384Z,3.63
2023-04-15T04:58:26.701Z,3.17
2023-04-15T05:00:46.772Z,3.67
2023-04-15T05:03:07.335Z,6.30
2023-04-15T05:05:27.779Z,5.68
2023-04-15T05:07:49.870Z,3.80
2023-04-15T05:10:10.847Z,3.95
2023-04-15T05:12:31.667Z,3.88
2023-04-15T05:14:51.969Z,4.03
2023-04-15T05:17:12.357Z,4.88
2023-04-15T05:19:32.380Z,4.78
2023-04-15T05:21:52.789Z,6.20
2023-04-15T05:24:12.968Z,5.07
2023-04-15T05:26:33.266Z,4.85
2023-04-15T05:28:53.641Z,5.13
2023-04-15T05:31:14.152Z,8.27
2023-04-15T05:33:34.572Z,4.93
2023-04-15T05:35:54.975Z,4.30
2023-04-15T05:38:15.560Z,3.90
2023-04-15T05:40:35.736Z,3.97
2023-04-15T05:42:55.983Z,4.45
2023-04-15T05:45:16.529Z,3.72
2023-04-15T05:47:37.071Z,5.72
2023-04-15T05:49:58.482Z,4.13
2023-04-15T05:52:18.695Z,4.63
2023-04-15T05:54:39.068Z,4.45
2023-04-15T05:56:59.135Z,3.65
2023-04-15T05:59:19.430Z,4.15
2023-04-15T06:01:39.706Z,3.72
2023-04-15T06:03:59.967Z,4.00
2023-04-15T06:06:20.278Z,3.33
2023-04-15T06:08:40.356Z,3.42
2023-04-15T06:11:00.889Z,3.88
2023-04-15T06:13:21.073Z,5.15
2023-04-15T06:15:41.624Z,5.20
2023-04-15T06:18:02.538Z,4.43
2023-04-15T06:20:23.347Z,4.07
2023-04-15T06:22:43.505Z,9.27
2023-04-15T06:25:03.837Z,6.03
2023-04-15T06:27:23.847Z,5.25
2023-04-15T06:29:43.987Z,5.72
2023-04-15T06:32:04.011Z,7.18
2023-04-15T06:34:24.087Z,5.55
2023-04-15T06:36:44.484Z,5.88
2023-04-15T06:39:04.544Z,4.93
2023-04-15T06:41:24.866Z,5.03
2023-04-15T06:43:44.990Z,5.25
2023-04-15T06:46:05.178Z,6.68
2023-04-15T06:48:25.204Z,6.43
2023-04-15T06:50:45.261Z,4.63
2023-04-15T06:53:05.975Z,4.70
2023-04-15T06:55:25.995Z,5.72
2023-04-15T06:57:46.158Z,5.38
2023-04-15T07:00:06.920Z,5.07
2023-04-15T07:02:27.479Z,4.53
2023-04-15T07:04:48.278Z,3.80
2023-04-15T07:07:08.776Z,7.70
2023-04-15T07:09:29.162Z,4.65
2023-04-15T07:11:49.239Z,4.00
2023-04-15T07:14:09.309Z,3.83
2023-04-15T07:16:30.332Z,3.90
2023-04-15T07:18:50.590Z,3.38
2023-04-15T07:21:10.708Z,3.45
2023-04-15T07:23:31.087Z,3.75
2023-04-15T07:25:51.582Z,3.35
2023-04-15T07:28:11.934Z,3.70
2023-04-15T07:30:32.410Z,2.92
2023-04-15T07:32:52.691Z,3.40
2023-04-15T07:35:12.880Z,3.33
2023-04-15T07:37:33.129Z,3.40
2023-04-15T07:39:53.876Z,3.53
2023-04-15T07:42:14.614Z,2.80
2023-04-15T07:44:35.005Z,3.30
2023-04-15T07:46:55.969Z,2.80
2023-04-15T07:49:16.078Z,2.97
2023-04-15T07:51:36.648Z,3.17
2023-04-15T07:53:57.023Z,3.63
2023-04-15T07:56:17.318Z,3.75
2023-04-15T07:58:37.594Z,3.40
2023-04-15T08:00:58.038Z,3.88
2023-04-15T08:03:18.420Z,2.28
2023-04-15T08:05:39.032Z,3.33
2023-04-15T08:07:59.593Z,3.40
2023-04-15T08:10:20.082Z,2.60
2023-04-15T08:12:40.797Z,3.25
2023-04-15T08:15:01.670Z,3.78
2023-04-15T08:17:21.940Z,3.00
2023-04-15T08:19:42.295Z,60.15
2023-04-15T08:22:02.821Z,14.68
2023-04-15T08:24:23.339Z,4.60
2023-04-15T08:26:43.730Z,2.83
2023-04-15T08:29:03.914Z,3.00
2023-04-15T08:31:27.137Z,4.45
2023-04-15T08:33:47.201Z,14.70
2023-04-15T08:36:07.829Z,5.13
2023-04-15T08:38:28.311Z,3.72
2023-04-15T08:40:48.605Z,6.45
2023-04-15T08:43:10.783Z,13.30
2023-04-15T08:45:31.576Z,11.85
2023-04-15T08:47:56.033Z,4.10
2023-04-15T08:50:16.719Z,3.65
2023-04-15T08:52:37.080Z,4.93
2023-04-15T08:54:58.472Z,4.40
2023-04-15T08:57:18.819Z,6.55
2023-04-15T08:59:39.500Z,5.80
2023-04-15T09:02:00.581Z,3.33
2023-04-15T09:04:20.981Z,2.95
2023-04-15T09:06:41.599Z,3.22
2023-04-15T09:09:01.748Z,4.70
2023-04-15T09:11:22.503Z,8.88
2023-04-15T09:13:42.613Z,4.38
2023-04-15T09:16:03.738Z,3.15
2023-04-15T09:18:41.993Z,2.60
2023-04-15T09:21:10.544Z,3.17
2023-04-15T09:23:30.894Z,2.80
2023-04-15T09:25:51.316Z,2.92
2023-04-15T09:28:11.543Z,2.90
2023-04-15T09:30:31.802Z,2.80
2023-04-15T09:32:59.306Z,2.80
2023-04-15T09:35:20.141Z,3.42
2023-04-15T09:37:40.650Z,3.15
2023-04-15T09:40:00.918Z,3.13
2023-04-15T09:42:24.736Z,3.13
2023-04-15T09:44:45.408Z,3.38
2023-04-15T09:47:05.849Z,3.83
2023-04-15T09:49:26.755Z,2.97
2023-04-15T09:52:01.323Z,2.75
2023-04-15T09:54:24.736Z,2.63
2023-04-15T09:56:45.662Z,2.88
2023-04-15T09:59:06.294Z,3.85
2023-04-15T10:01:26.443Z,2.20
2023-04-15T10:03:46.951Z,2.22
2023-04-15T10:06:07.360Z,2.33
2023-04-15T10:08:32.189Z,2.70
2023-04-15T10:10:52.264Z,1.92
2023-04-15T10:13:23.219Z,2.40
2023-04-15T10:15:45.437Z,2.95
2023-04-15T10:18:08.050Z,2.70
2023-04-15T10:22:48.809Z,2.72
2023-04-15T10:25:09.372Z,2.13
2023-04-15T10:27:29.973Z,2.03
2023-04-15T10:29:51.002Z,1.90
2023-04-15T10:32:12.055Z,2.58
2023-04-15T10:34:32.472Z,2.35
2023-04-15T10:36:56.812Z,1.90
2023-04-15T10:39:36.705Z,2.88
2023-04-15T10:42:15.792Z,1.40
2023-04-15T10:44:57.135Z,2.15
2023-04-15T10:47:18.936Z,3.45
2023-04-15T10:50:05.728Z,1.60
2023-04-15T10:52:27.465Z,9.68
2023-04-15T10:54:47.693Z,1.38
2023-04-15T10:57:09.839Z,2.05
2023-04-15T10:59:30.999Z,2.05
2023-04-15T11:01:59.425Z,1.15
2023-04-15T11:04:40.955Z,1.80
2023-04-15T11:07:07.919Z,2.38
2023-04-15T11:09:33.003Z,1.92
2023-04-15T11:12:09.071Z,2.42
2023-04-15T11:14:29.317Z,2.45
2023-04-15T11:16:49.692Z,1.48
2023-04-15T11:19:10.268Z,1.40
2023-04-15T11:21:30.447Z,1.38
2023-04-15T11:23:50.671Z,4.68
2023-04-15T11:26:11.481Z,2.20
2023-04-15T11:28:32.100Z,1.80
2023-04-15T11:30:53.702Z,2.47
2023-04-15T11:33:14.223Z,2.05
2023-04-15T11:35:34.538Z,1.45
2023-04-15T11:37:55.170Z,2.42
2023-04-15T11:40:16.917Z,1.20
2023-04-15T11:42:48.571Z,1.75
2023-04-15T11:45:13.648Z,1.52
2023-04-15T11:47:36.303Z,1.45
2023-04-15T11:49:56.883Z,2.83
2023-04-15T11:52:17.414Z,2.88
2023-04-15T11:54:37.620Z,1.85
2023-04-15T11:56:59.572Z,1.60
2023-04-15T11:59:20.058Z,1.40
2023-04-15T12:01:43.237Z,4.13
2023-04-15T12:04:11.486Z,1.48
2023-04-15T12:06:34.361Z,3.20
2023-04-15T12:08:54.816Z,1.50
2023-04-15T12:11:15.871Z,1.15
2023-04-15T12:13:36.370Z,2.08
2023-04-15T12:15:56.704Z,1.00
2023-04-15T12:18:17.792Z,1.23
2023-04-15T12:20:44.738Z,1.38
2023-04-15T12:23:07.982Z,1.55
2023-04-15T12:25:34.966Z,2.50
2023-04-15T12:27:55.541Z,1.30
2023-04-15T12:30:16.318Z,1.60
2023-04-15T12:32:36.611Z,2.10
2023-04-15T12:34:57.667Z,1.45
2023-04-15T12:37:17.936Z,1.65
2023-04-15T12:39:39.954Z,3.22
2023-04-15T12:42:00.893Z,1.57
2023-04-15T12:44:22.490Z,1.20
2023-04-15T12:46:42.722Z,1.30
2023-04-15T12:49:03.179Z,1.45
2023-04-15T12:51:23.420Z,1.30
2023-04-15T12:53:43.532Z,1.40
2023-04-15T12:56:03.633Z,1.10
2023-04-15T12:58:23.804Z,1.20
2023-04-15T13:00:44.167Z,1.20
2023-04-15T13:03:06.803Z,1.20
2023-04-15T13:05:26.949Z,1.40
2023-04-15T13:07:47.250Z,1.35
2023-04-15T13:10:07.742Z,1.83
2023-04-15T13:12:28.253Z,2.67
2023-04-15T13:14:48.526Z,2.25
2023-04-15T13:17:09.615Z,1.30
2023-04-15T13:19:29.630Z,1.30
2023-04-15T13:21:49.854Z,1.45
2023-04-15T13:24:10.046Z,1.25
2023-04-15T13:26:30.963Z,1.33
2023-04-15T13:28:51.256Z,1.80
2023-04-15T13:31:11.304Z,1.20
2023-04-15T13:33:31.344Z,1.20
2023-04-15T13:35:51.741Z,1.77
2023-04-15T13:38:12.154Z,1.20
2023-04-15T13:40:32.113Z,1.60
2023-04-15T13:42:52.637Z,1.30
2023-04-15T13:45:12.898Z,1.30
2023-04-15T13:47:33.433Z,1.40
2023-04-15T13:49:55.639Z,3.33
2023-04-15T13:52:15.584Z,1.13
2023-04-15T13:54:37.836Z,2.40
2023-04-15T13:56:58.664Z,3.50
2023-04-15T13:59:18.814Z,1.35
2023-04-15T14:01:40.652Z,3.03
2023-04-15T14:04:01.113Z,1.23
2023-04-15T14:06:21.829Z,5.13
2023-04-15T14:08:42.050Z,1.10
2023-04-15T14:11:02.351Z,1.02
2023-04-15T14:13:22.492Z,1.10
2023-04-15T14:15:42.805Z,1.60
2023-04-15T14:18:03.077Z,2.17
2023-04-15T14:20:23.307Z,1.40
2023-04-15T14:22:43.503Z,2.33
2023-04-15T14:25:03.990Z,2.15
2023-04-15T14:27:24.148Z,1.83
2023-04-15T14:29:44.311Z,1.60
2023-04-15T14:32:11.812Z,2.20
2023-04-15T14:34:33.079Z,2.30
2023-04-15T14:36:53.335Z,1.73
2023-04-15T14:39:14.151Z,1.70
2023-04-15T14:41:34.840Z,1.20
2023-04-15T14:43:55.931Z,1.48
2023-04-15T14:46:16.163Z,2.08
2023-04-15T14:48:36.490Z,2.30
2023-04-15T14:50:56.526Z,4.60
2023-04-15T14:53:16.872Z,5.88
2023-04-15T14:55:37.115Z,4.65
2023-04-15T14:57:57.116Z,15.40
2023-04-15T15:00:17.620Z,31.73
2023-04-15T15:02:40.464Z,6.95
2023-04-15T15:05:01.385Z,4.47
2023-04-15T15:07:22.676Z,4.72
2023-04-15T15:09:42.588Z,3.85
2023-04-15T15:12:03.040Z,3.92
2023-04-15T15:14:23.413Z,4.38
2023-04-15T15:16:44.251Z,3.50
2023-04-15T15:19:04.595Z,10.82
2023-04-15T15:21:26.403Z,5.28
2023-04-15T15:23:47.585Z,2.90
2023-04-15T15:26:07.621Z,3.55
2023-04-15T15:28:27.756Z,4.22
2023-04-15T15:30:47.996Z,6.10
2023-04-15T15:33:08.284Z,8.85
2023-04-15T15:35:28.241Z,16.27
2023-04-15T15:37:48.364Z,9.02
2023-04-15T15:40:08.617Z,6.65
2023-04-15T15:42:31.034Z,4.75
2023-04-15T15:44:52.195Z,4.15
2023-04-15T15:47:12.465Z,6.85
2023-04-15T15:49:32.471Z,5.50
2023-04-15T15:51:52.575Z,10.13
2023-04-15T15:54:12.925Z,4.03
2023-04-15T15:56:34.411Z,2.75
2023-04-15T15:58:54.797Z,3.47
2023-04-15T16:01:15.150Z,3.58
2023-04-15T16:03:35.627Z,3.80
2023-04-15T16:05:55.730Z,2.72
2023-04-15T16:08:16.172Z,3.70
2023-04-15T16:10:37.827Z,4.65
2023-04-15T16:12:58.380Z,4.20
2023-04-15T16:15:18.344Z,4.88
2023-04-15T16:17:38.716Z,6.32
2023-04-15T16:20:00.725Z,6.68
2023-04-15T16:22:21.592Z,5.63
2023-04-15T16:24:41.748Z,6.97
2023-04-15T16:27:02.288Z,7.85
2023-04-15T16:29:22.455Z,6.60
2023-04-15T16:31:43.034Z,8.38
2023-04-15T16:34:03.246Z,15.27
2023-04-15T16:36:23.594Z,11.38
2023-04-15T16:38:47.677Z,8.32
2023-04-15T16:41:08.047Z,6.75
2023-04-15T16:43:28.822Z,5.63
2023-04-15T16:45:50.215Z,5.25
2023-04-15T16:48:10.686Z,5.65
2023-04-15T16:50:30.771Z,6.95
2023-04-15T16:52:50.718Z,6.93
2023-04-15T16:55:10.890Z,7.43
2023-04-15T16:58:00.698Z,4.55
2023-04-15T17:00:12.189Z,4.25
2023-04-15T17:02:33.043Z,5.55
2023-04-15T17:04:53.249Z,6.45
2023-04-15T17:07:13.867Z,5.18
2023-04-15T17:09:34.278Z,4.30
2023-04-15T17:11:54.493Z,3.15
2023-04-15T17:14:14.725Z,3.42
2023-04-15T17:16:35.644Z,2.63
2023-04-15T17:18:56.236Z,3.70
2023-04-15T17:21:17.146Z,3.33
2023-04-15T17:23:37.546Z,5.30
2023-04-15T17:25:57.672Z,5.90
2023-04-15T17:28:18.252Z,7.68
2023-04-15T17:30:38.296Z,9.13
2023-04-15T17:32:58.422Z,33.45
2023-04-15T17:35:18.684Z,69.82
2023-04-15T17:37:38.801Z,29.65
2023-04-15T17:39:58.931Z,26.65
2023-04-15T17:42:18.949Z,34.72
2023-04-15T17:44:38.964Z,74.18
2023-04-15T17:46:59.203Z,34.58
2023-04-15T17:49:19.272Z,21.38
2023-04-15T17:51:39.285Z,20.45
2023-04-15T17:53:59.338Z,14.18
2023-04-15T17:56:19.366Z,21.98
2023-04-15T17:58:39.422Z,22.27
2023-04-15T18:00:59.628Z,18.98
2023-04-15T18:03:20.147Z,22.38
2023-04-15T18:05:42.561Z,18.48
2023-04-15T18:08:02.984Z,14.82
2023-04-15T18:10:23.417Z,12.88
2023-04-15T18:12:43.294Z,11.27
2023-04-15T18:15:06.670Z,12.88
2023-04-15T18:17:27.532Z,13.05
2023-04-15T18:19:47.591Z,12.02
2023-04-15T18:22:07.750Z,11.00
2023-04-15T18:24:28.134Z,11.55
2023-04-15T18:26:49.125Z,15.68
2023-04-15T18:29:10.682Z,21.13
2023-04-15T18:31:32.320Z,8.98
2023-04-15T18:33:52.367Z,10.75
2023-04-15T18:36:12.610Z,8.10
2023-04-15T18:38:32.562Z,9.02
2023-04-15T18:40:52.809Z,9.80
2023-04-15T18:43:12.936Z,7.13
2023-04-15T18:45:33.141Z,9.48
2023-04-15T18:47:53.323Z,16.42
2023-04-15T18:50:13.320Z,11.57
2023-04-15T18:52:33.525Z,10.20
2023-04-15T18:54:53.611Z,15.63
2023-04-15T18:57:13.809Z,28.60
2023-04-15T18:59:39.957Z,47.25
2023-04-15T19:02:01.343Z,27.42
2023-04-15T19:04:21.804Z,23.70
2023-04-15T19:06:42.152Z,25.38
2023-04-15T19:09:02.415Z,24.05
2023-04-15T19:11:22.335Z,29.27
2023-04-15T19:13:42.466Z,20.13
2023-04-15T19:16:02.654Z,16.45
2023-04-15T19:18:22.635Z,16.90
2023-04-15T19:20:42.618Z,11.50
2023-04-15T19:23:02.901Z,15.50
2023-04-15T19:25:23.070Z,9.02
2023-04-15T19:27:43.284Z,6.30
2023-04-15T19:30:03.769Z,8.93
2023-04-15T19:32:24.112Z,12.85
2023-04-15T19:34:43.989Z,16.73
2023-04-15T19:37:04.247Z,37.40
2023-04-15T19:39:25.074Z,20.77
2023-04-15T19:41:45.223Z,25.95
2023-04-15T19:44:05.701Z,16.52
2023-04-15T19:46:27.050Z,15.05
2023-04-15T19:48:47.303Z,9.80
2023-04-15T19:51:07.372Z,18.48
2023-04-15T19:53:27.499Z,20.75
2023-04-15T19:55:48.206Z,42.03
2023-04-15T19:58:08.551Z,30.55
2023-04-15T20:00:28.951Z,36.15
2023-04-15T20:02:49.386Z,46.45
2023-04-15T20:05:09.909Z,50.25
2023-04-15T20:07:30.241Z,18.08
2023-04-15T20:09:51.336Z,26.27
2023-04-15T20:12:50.962Z,41.58
2023-04-15T20:14:51.754Z,21.00
2023-04-15T20:17:11.918Z,19.77
2023-04-15T20:19:32.283Z,17.40
2023-04-15T20:21:53.371Z,12.65
2023-04-15T20:24:13.634Z,11.18
2023-04-15T20:26:33.977Z,10.55
2023-04-15T20:28:54.392Z,10.88
2023-04-15T20:31:14.903Z,11.00
2023-04-15T20:33:35.006Z,7.72
2023-04-15T20:35:55.118Z,9.73
2023-04-15T20:38:15.727Z,15.27
2023-04-15T20:40:36.178Z,23.25
2023-04-15T20:42:56.698Z,15.50
2023-04-15T20:45:16.843Z,13.15
2023-04-15T20:47:37.160Z,11.55
2023-04-15T20:49:57.473Z,8.05
2023-04-15T20:52:17.770Z,13.23
2023-04-15T20:54:37.931Z,9.13
2023-04-15T20:56:58.141Z,8.18
2023-04-15T20:59:18.451Z,28.83
2023-04-15T21:01:39.587Z,8.93
2023-04-15T21:03:59.838Z,6.85
2023-04-15T21:06:19.897Z,8.65
2023-04-15T21:08:40.130Z,7.43
2023-04-15T21:11:00.284Z,3.92
2023-04-15T21:13:20.613Z,5.32
2023-04-15T21:15:40.938Z,5.78
2023-04-15T21:18:01.183Z,4.05
2023-04-15T21:20:21.593Z,3.40
2023-04-15T21:22:41.878Z,4.07
2023-04-15T21:25:02.279Z,4.70
2023-04-15T21:27:22.608Z,5.13
2023-04-15T21:29:42.780Z,6.07
2023-04-15T21:32:03.168Z,5.38
2023-04-15T21:34:23.316Z,5.05
2023-04-15T21:36:43.649Z,4.53
2023-04-15T21:39:04.291Z,3.92
2023-04-15T21:41:24.959Z,4.68
2023-04-15T21:43:45.015Z,4.80
2023-04-15T21:46:23.174Z,5.88
2023-04-15T21:48:45.758Z,5.60
2023-04-15T21:51:06.134Z,6.03
2023-04-15T21:53:26.739Z,5.25
2023-04-15T21:55:47.052Z,5.30
2023-04-15T21:58:07.298Z,5.40
2023-04-15T22:00:27.736Z,4.50
2023-04-15T22:02:47.997Z,3.63
2023-04-15T22:05:08.337Z,4.47
2023-04-15T22:07:28.572Z,4.10
2023-04-15T22:09:48.484Z,4.43
2023-04-15T22:12:08.682Z,4.03
2023-04-15T22:14:29.770Z,4.28
2023-04-15T22:16:50.081Z,3.83
2023-04-15T22:19:10.713Z,3.53
2023-04-15T22:21:31.889Z,5.72
2023-04-15T22:23:52.960Z,3.97
2023-04-15T22:26:33.372Z,5.55
2023-04-15T22:28:53.528Z,5.38
2023-04-15T22:31:14.239Z,4.30
2023-04-15T22:33:34.572Z,4.90
2023-04-15T22:35:54.617Z,4.40
2023-04-15T22:38:14.997Z,4.38
2023-04-15T22:40:35.335Z,4.05
2023-04-15T22:42:55.775Z,3.70
2023-04-15T22:45:15.938Z,3.67
2023-04-15T22:47:36.068Z,4.35
2023-04-15T22:49:56.359Z,3.72
2023-04-15T22:52:29.467Z,3.42
2023-04-15T22:54:50.573Z,3.97
2023-04-15T22:57:10.524Z,3.80
2023-04-15T22:59:30.574Z,3.40
2023-04-15T23:01:51.023Z,4.30
2023-04-15T23:04:22.687Z,3.92
2023-04-15T23:06:45.436Z,4.22
2023-04-15T23:09:05.759Z,4.60
2023-04-15T23:11:25.931Z,4.63
2023-04-15T23:13:46.234Z,4.25
2023-04-15T23:16:06.618Z,3.92
2023-04-15T23:18:26.942Z,4.15
2023-04-15T23:20:46.981Z,4.32
2023-04-15T23:23:06.949Z,3.25
2023-04-15T23:25:27.090Z,3.17
2023-04-15T23:27:47.445Z,3.35
2023-04-15T23:30:07.880Z,3.28
2023-04-15T23:32:28.536Z,2.90
2023-04-15T23:34:49.465Z,2.67
2023-04-15T23:37:09.874Z,2.92
2023-04-15T23:39:29.860Z,3.20
2023-04-15T23:41:49.993Z,4.10
2023-04-15T23:44:10.348Z,2.42
2023-04-15T23:46:30.782Z,2.90
2023-04-15T23:48:50.922Z,3.10
2023-04-15T23:51:10.820Z,2.90
2023-04-15T23:53:31.544Z,2.95
2023-04-15T23:55:51.666Z,3.10
2023-04-15T23:58:12.013Z,3.30
